createdAt,value
2022-10-23T18:44:17.389Z,16.50
2022-10-23T18:49:20.792Z,16.50
2022-10-23T18:54:23.621Z,16.50
2022-10-23T18:59:26.405Z,16.50
2022-10-23T19:04:31.719Z,16.50
2022-10-23T19:09:37.029Z,16.50
2022-10-23T19:14:40.415Z,16.50
2022-10-23T19:19:46.384Z,16.50
2022-10-23T19:24:54.926Z,16.40
2022-10-23T19:30:01.149Z,16.50
2022-10-23T19:35:04.331Z,16.50
2022-10-23T19:40:07.985Z,16.60
2022-10-23T19:45:14.040Z,16.60
2022-10-23T19:50:16.870Z,16.60
2022-10-23T19:55:19.618Z,16.60
2022-10-23T20:00:22.574Z,16.70
2022-10-23T20:05:25.409Z,16.70
2022-10-23T20:10:28.326Z,16.80
2022-10-23T20:15:31.174Z,16.70
2022-10-23T20:20:33.918Z,16.70
2022-10-23T20:25:37.017Z,16.70
2022-10-23T20:30:41.959Z,16.60
2022-10-23T20:35:44.834Z,16.60
2022-10-23T20:40:47.547Z,16.50
2022-10-23T20:45:50.594Z,16.50
2022-10-23T20:50:53.884Z,16.40
2022-10-23T20:55:56.732Z,16.30
2022-10-23T21:01:08.765Z,16.30
2022-10-23T21:06:13.926Z,16.20
2022-10-23T21:11:17.499Z,16.00
2022-10-23T21:16:24.903Z,15.90
2022-10-23T21:21:33.061Z,15.80
2022-10-23T21:26:36.166Z,15.80
2022-10-23T21:31:39.326Z,15.80
2022-10-23T21:37:10.930Z,15.80
2022-10-23T21:42:08.861Z,15.80
2022-10-23T21:47:11.675Z,15.80
2022-10-23T21:52:16.305Z,15.80
2022-10-23T21:57:21.894Z,15.80
2022-10-23T22:02:25.102Z,15.90
2022-10-23T22:12:31.528Z,15.90
2022-10-23T22:17:34.431Z,15.90
2022-10-23T22:22:37.612Z,15.90
2022-10-23T22:27:40.367Z,15.80
2022-10-23T22:32:43.549Z,15.70
2022-10-23T22:37:46.577Z,15.60
2022-10-23T22:42:49.276Z,15.60
2022-10-23T22:47:52.082Z,15.60
2022-10-23T22:52:55.336Z,15.60
2022-10-23T22:57:58.286Z,15.70
2022-10-23T23:03:01.141Z,15.70
2022-10-23T23:08:04.072Z,15.70
2022-10-23T23:13:07.218Z,15.70
2022-10-23T23:18:09.912Z,15.70
2022-10-23T23:23:14.216Z,15.80
2022-10-23T23:28:19.302Z,15.80
2022-10-23T23:33:23.944Z,15.80
2022-10-23T23:38:27.614Z,15.80
2022-10-23T23:43:30.717Z,15.80
2022-10-23T23:48:33.709Z,15.90
2022-10-23T23:53:36.533Z,15.90
2022-10-23T23:58:39.532Z,15.90
